sensor_id;sensor_type;location;lat;lon;timestamp;P1;durP1;ratioP1;P2;durP2;ratioP2
16640;SDS011;8434;47.990;7.880;2022-07-23T00:00:19;8.07;;;7.38;;
16640;SDS011;8434;47.990;7.880;2022-07-23T00:03:04;8.05;;;7.35;;
16640;SDS011;8434;47.990;7.880;2022-07-23T00:05:50;8.55;;;7.85;;
16640;SDS011;8434;47.990;7.880;2022-07-23T00:08:35;8.60;;;7.68;;
16640;SDS011;8434;47.990;7.880;2022-07-23T00:11:20;7.72;;;7.07;;
16640;SDS011;8434;47.990;7.880;2022-07-23T00:14:06;8.20;;;7.30;;
16640;SDS011;8434;47.990;7.880;2022-07-23T00:16:51;8.05;;;7.28;;
16640;SDS011;8434;47.990;7.880;2022-07-23T00:19:36;8.55;;;7.65;;
16640;SDS011;8434;47.990;7.880;2022-07-23T00:22:22;8.18;;;7.40;;
16640;SDS011;8434;47.990;7.880;2022-07-23T00:25:07;8.52;;;7.72;;
16640;SDS011;8434;47.990;7.880;2022-07-23T00:27:52;9.13;;;8.30;;
16640;SDS011;8434;47.990;7.880;2022-07-23T00:30:37;7.53;;;6.93;;
16640;SDS011;8434;47.990;7.880;2022-07-23T00:33:22;8.63;;;7.80;;
16640;SDS011;8434;47.990;7.880;2022-07-23T00:36:07;7.18;;;6.57;;
16640;SDS011;8434;47.990;7.880;2022-07-23T00:38:54;6.63;;;6.03;;
16640;SDS011;8434;47.990;7.880;2022-07-23T00:41:40;7.10;;;6.47;;
16640;SDS011;8434;47.990;7.880;2022-07-23T00:44:26;6.43;;;5.82;;
16640;SDS011;8434;47.990;7.880;2022-07-23T00:47:12;7.03;;;6.32;;
16640;SDS011;8434;47.990;7.880;2022-07-23T00:49:57;7.10;;;6.45;;
16640;SDS011;8434;47.990;7.880;2022-07-23T00:52:42;7.30;;;6.60;;
16640;SDS011;8434;47.990;7.880;2022-07-23T00:55:29;7.47;;;6.78;;
16640;SDS011;8434;47.990;7.880;2022-07-23T00:58:15;7.88;;;7.18;;
16640;SDS011;8434;47.990;7.880;2022-07-23T01:01:01;10.18;;;7.63;;
16640;SDS011;8434;47.990;7.880;2022-07-23T01:03:46;7.50;;;6.70;;
16640;SDS011;8434;47.990;7.880;2022-07-23T01:06:32;9.82;;;7.28;;
16640;SDS011;8434;47.990;7.880;2022-07-23T01:09:18;7.72;;;7.13;;
16640;SDS011;8434;47.990;7.880;2022-07-23T01:12:06;8.40;;;7.60;;
16640;SDS011;8434;47.990;7.880;2022-07-23T01:14:53;7.90;;;7.20;;
16640;SDS011;8434;47.990;7.880;2022-07-23T01:17:39;8.25;;;7.43;;
16640;SDS011;8434;47.990;7.880;2022-07-23T01:20:24;8.45;;;7.50;;
16640;SDS011;8434;47.990;7.880;2022-07-23T01:23:10;7.53;;;6.78;;
16640;SDS011;8434;47.990;7.880;2022-07-23T01:25:55;7.90;;;7.20;;
16640;SDS011;8434;47.990;7.880;2022-07-23T01:28:40;7.90;;;7.10;;
16640;SDS011;8434;47.990;7.880;2022-07-23T01:31:26;8.43;;;7.70;;
16640;SDS011;8434;47.990;7.880;2022-07-23T01:34:11;8.02;;;7.32;;
16640;SDS011;8434;47.990;7.880;2022-07-23T01:36:56;7.97;;;7.28;;
16640;SDS011;8434;47.990;7.880;2022-07-23T01:39:42;12.35;;;9.15;;
16640;SDS011;8434;47.990;7.880;2022-07-23T01:42:28;15.05;;;9.98;;
16640;SDS011;8434;47.990;7.880;2022-07-23T01:45:13;11.45;;;9.80;;
16640;SDS011;8434;47.990;7.880;2022-07-23T01:47:58;12.32;;;10.27;;
16640;SDS011;8434;47.990;7.880;2022-07-23T01:50:43;12.30;;;10.40;;
16640;SDS011;8434;47.990;7.880;2022-07-23T01:53:28;13.70;;;10.60;;
16640;SDS011;8434;47.990;7.880;2022-07-23T01:56:16;12.97;;;11.13;;
16640;SDS011;8434;47.990;7.880;2022-07-23T01:59:03;14.20;;;12.33;;
16640;SDS011;8434;47.990;7.880;2022-07-23T02:01:48;14.13;;;12.60;;
16640;SDS011;8434;47.990;7.880;2022-07-23T02:04:34;15.37;;;12.47;;
16640;SDS011;8434;47.990;7.880;2022-07-23T02:07:20;16.43;;;12.87;;
16640;SDS011;8434;47.990;7.880;2022-07-23T02:10:05;13.97;;;12.37;;
16640;SDS011;8434;47.990;7.880;2022-07-23T02:12:52;14.07;;;12.70;;
16640;SDS011;8434;47.990;7.880;2022-07-23T02:15:36;14.87;;;13.10;;
16640;SDS011;8434;47.990;7.880;2022-07-23T02:18:21;16.13;;;14.50;;
16640;SDS011;8434;47.990;7.880;2022-07-23T02:21:06;14.60;;;13.30;;
16640;SDS011;8434;47.990;7.880;2022-07-23T02:23:51;14.10;;;12.80;;
16640;SDS011;8434;47.990;7.880;2022-07-23T02:26:36;14.27;;;12.93;;
16640;SDS011;8434;47.990;7.880;2022-07-23T02:29:22;13.95;;;12.70;;
16640;SDS011;8434;47.990;7.880;2022-07-23T02:32:07;14.07;;;12.67;;
16640;SDS011;8434;47.990;7.880;2022-07-23T02:34:52;16.53;;;14.73;;
16640;SDS011;8434;47.990;7.880;2022-07-23T02:37:37;15.50;;;13.90;;
16640;SDS011;8434;47.990;7.880;2022-07-23T02:40:22;14.93;;;13.50;;
16640;SDS011;8434;47.990;7.880;2022-07-23T02:43:07;14.97;;;13.47;;
16640;SDS011;8434;47.990;7.880;2022-07-23T02:45:53;14.83;;;13.37;;
16640;SDS011;8434;47.990;7.880;2022-07-23T02:48:39;15.47;;;13.87;;
16640;SDS011;8434;47.990;7.880;2022-07-23T02:51:24;14.17;;;12.70;;
16640;SDS011;8434;47.990;7.880;2022-07-23T02:54:09;14.13;;;12.83;;
16640;SDS011;8434;47.990;7.880;2022-07-23T02:56:55;14.20;;;12.83;;
16640;SDS011;8434;47.990;7.880;2022-07-23T02:59:40;14.37;;;13.00;;
16640;SDS011;8434;47.990;7.880;2022-07-23T03:02:26;15.53;;;14.13;;
16640;SDS011;8434;47.990;7.880;2022-07-23T03:05:11;15.03;;;13.53;;
16640;SDS011;8434;47.990;7.880;2022-07-23T03:07:56;13.40;;;12.20;;
16640;SDS011;8434;47.990;7.880;2022-07-23T03:10:41;12.30;;;11.30;;
16640;SDS011;8434;47.990;7.880;2022-07-23T03:13:27;13.60;;;12.33;;
16640;SDS011;8434;47.990;7.880;2022-07-23T03:16:13;13.40;;;12.17;;
16640;SDS011;8434;47.990;7.880;2022-07-23T03:18:59;14.57;;;12.97;;
16640;SDS011;8434;47.990;7.880;2022-07-23T03:21:44;14.43;;;13.03;;
16640;SDS011;8434;47.990;7.880;2022-07-23T03:24:30;12.97;;;11.67;;
16640;SDS011;8434;47.990;7.880;2022-07-23T03:27:29;14.30;;;12.80;;
16640;SDS011;8434;47.990;7.880;2022-07-23T03:30:15;13.17;;;11.87;;
16640;SDS011;8434;47.990;7.880;2022-07-23T03:32:59;15.93;;;12.27;;
16640;SDS011;8434;47.990;7.880;2022-07-23T03:35:46;12.90;;;11.70;;
16640;SDS011;8434;47.990;7.880;2022-07-23T03:38:31;13.10;;;11.90;;
16640;SDS011;8434;47.990;7.880;2022-07-23T03:41:16;13.33;;;12.10;;
16640;SDS011;8434;47.990;7.880;2022-07-23T03:44:01;14.20;;;12.90;;
16640;SDS011;8434;47.990;7.880;2022-07-23T03:46:46;13.10;;;11.77;;
16640;SDS011;8434;47.990;7.880;2022-07-23T03:49:31;12.17;;;10.97;;
16640;SDS011;8434;47.990;7.880;2022-07-23T03:52:18;12.23;;;11.10;;
16640;SDS011;8434;47.990;7.880;2022-07-23T03:55:03;12.93;;;11.70;;
16640;SDS011;8434;47.990;7.880;2022-07-23T03:57:48;12.57;;;11.47;;
16640;SDS011;8434;47.990;7.880;2022-07-23T04:00:33;13.93;;;12.53;;
16640;SDS011;8434;47.990;7.880;2022-07-23T04:03:18;13.40;;;12.10;;
16640;SDS011;8434;47.990;7.880;2022-07-23T04:06:03;14.37;;;12.97;;
16640;SDS011;8434;47.990;7.880;2022-07-23T04:08:50;13.30;;;12.07;;
16640;SDS011;8434;47.990;7.880;2022-07-23T04:11:34;11.80;;;10.70;;
16640;SDS011;8434;47.990;7.880;2022-07-23T04:14:19;12.97;;;11.77;;
16640;SDS011;8434;47.990;7.880;2022-07-23T04:17:04;13.43;;;12.30;;
16640;SDS011;8434;47.990;7.880;2022-07-23T04:19:49;12.60;;;11.40;;
16640;SDS011;8434;47.990;7.880;2022-07-23T04:22:34;12.97;;;11.67;;
16640;SDS011;8434;47.990;7.880;2022-07-23T04:25:21;13.33;;;12.03;;
16640;SDS011;8434;47.990;7.880;2022-07-23T04:28:06;12.50;;;11.30;;
16640;SDS011;8434;47.990;7.880;2022-07-23T04:30:50;12.50;;;11.30;;
16640;SDS011;8434;47.990;7.880;2022-07-23T04:33:35;13.03;;;11.60;;
16640;SDS011;8434;47.990;7.880;2022-07-23T04:36:20;12.50;;;11.40;;
16640;SDS011;8434;47.990;7.880;2022-07-23T04:39:05;12.43;;;11.33;;
16640;SDS011;8434;47.990;7.880;2022-07-23T04:41:52;12.23;;;11.03;;
16640;SDS011;8434;47.990;7.880;2022-07-23T04:44:36;11.57;;;10.57;;
16640;SDS011;8434;47.990;7.880;2022-07-23T04:47:21;11.03;;;10.13;;
16640;SDS011;8434;47.990;7.880;2022-07-23T04:50:06;12.17;;;11.00;;
16640;SDS011;8434;47.990;7.880;2022-07-23T04:52:52;11.47;;;10.20;;
16640;SDS011;8434;47.990;7.880;2022-07-23T04:55:38;12.20;;;11.20;;
16640;SDS011;8434;47.990;7.880;2022-07-23T04:58:25;11.77;;;10.67;;
16640;SDS011;8434;47.990;7.880;2022-07-23T05:01:10;12.10;;;10.90;;
16640;SDS011;8434;47.990;7.880;2022-07-23T05:03:55;11.90;;;10.70;;
16640;SDS011;8434;47.990;7.880;2022-07-23T05:06:40;11.50;;;10.50;;
16640;SDS011;8434;47.990;7.880;2022-07-23T05:09:24;11.33;;;10.23;;
16640;SDS011;8434;47.990;7.880;2022-07-23T05:12:09;11.68;;;10.40;;
16640;SDS011;8434;47.990;7.880;2022-07-23T05:14:56;10.37;;;9.40;;
16640;SDS011;8434;47.990;7.880;2022-07-23T05:17:40;10.65;;;9.68;;
16640;SDS011;8434;47.990;7.880;2022-07-23T05:20:26;13.68;;;10.00;;
16640;SDS011;8434;47.990;7.880;2022-07-23T05:23:10;9.68;;;8.88;;
16640;SDS011;8434;47.990;7.880;2022-07-23T05:25:55;9.50;;;8.60;;
16640;SDS011;8434;47.990;7.880;2022-07-23T05:28:40;9.88;;;9.07;;
16640;SDS011;8434;47.990;7.880;2022-07-23T05:31:27;10.35;;;9.45;;
16640;SDS011;8434;47.990;7.880;2022-07-23T05:34:12;10.05;;;9.18;;
16640;SDS011;8434;47.990;7.880;2022-07-23T05:36:57;9.85;;;9.05;;
16640;SDS011;8434;47.990;7.880;2022-07-23T05:39:42;9.73;;;8.80;;
16640;SDS011;8434;47.990;7.880;2022-07-23T05:42:26;10.50;;;9.45;;
16640;SDS011;8434;47.990;7.880;2022-07-23T05:45:11;10.35;;;9.35;;
16640;SDS011;8434;47.990;7.880;2022-07-23T05:47:57;10.50;;;9.60;;
16640;SDS011;8434;47.990;7.880;2022-07-23T05:50:42;10.05;;;9.23;;
16640;SDS011;8434;47.990;7.880;2022-07-23T05:53:28;10.32;;;9.40;;
16640;SDS011;8434;47.990;7.880;2022-07-23T05:56:13;10.05;;;9.15;;
16640;SDS011;8434;47.990;7.880;2022-07-23T05:58:58;9.05;;;8.30;;
16640;SDS011;8434;47.990;7.880;2022-07-23T06:01:43;9.00;;;8.10;;
16640;SDS011;8434;47.990;7.880;2022-07-23T06:04:29;10.88;;;8.50;;
16640;SDS011;8434;47.990;7.880;2022-07-23T06:07:14;9.57;;;8.68;;
16640;SDS011;8434;47.990;7.880;2022-07-23T06:09:59;9.20;;;8.40;;
16640;SDS011;8434;47.990;7.880;2022-07-23T06:12:44;9.32;;;8.38;;
16640;SDS011;8434;47.990;7.880;2022-07-23T06:15:29;8.88;;;8.07;;
16640;SDS011;8434;47.990;7.880;2022-07-23T06:18:15;9.23;;;8.32;;
16640;SDS011;8434;47.990;7.880;2022-07-23T06:21:01;9.18;;;8.27;;
16640;SDS011;8434;47.990;7.880;2022-07-23T06:23:46;8.30;;;7.63;;
16640;SDS011;8434;47.990;7.880;2022-07-23T06:26:31;8.32;;;7.53;;
16640;SDS011;8434;47.990;7.880;2022-07-23T06:29:16;8.85;;;8.05;;
16640;SDS011;8434;47.990;7.880;2022-07-23T06:32:01;8.02;;;7.32;;
16640;SDS011;8434;47.990;7.880;2022-07-23T06:34:46;8.10;;;7.40;;
16640;SDS011;8434;47.990;7.880;2022-07-23T06:37:32;8.68;;;7.88;;
16640;SDS011;8434;47.990;7.880;2022-07-23T06:40:17;9.25;;;8.38;;
16640;SDS011;8434;47.990;7.880;2022-07-23T06:43:02;9.55;;;8.35;;
16640;SDS011;8434;47.990;7.880;2022-07-23T06:45:47;9.55;;;8.65;;
16640;SDS011;8434;47.990;7.880;2022-07-23T06:48:32;8.95;;;8.15;;
16640;SDS011;8434;47.990;7.880;2022-07-23T06:51:18;9.25;;;7.80;;
16640;SDS011;8434;47.990;7.880;2022-07-23T06:54:04;8.00;;;7.30;;
16640;SDS011;8434;47.990;7.880;2022-07-23T06:56:49;8.85;;;8.15;;
16640;SDS011;8434;47.990;7.880;2022-07-23T06:59:34;8.65;;;7.75;;
16640;SDS011;8434;47.990;7.880;2022-07-23T07:02:23;8.70;;;8.00;;
16640;SDS011;8434;47.990;7.880;2022-07-23T07:05:08;9.18;;;8.38;;
16640;SDS011;8434;47.990;7.880;2022-07-23T07:07:53;8.57;;;7.88;;
16640;SDS011;8434;47.990;7.880;2022-07-23T07:10:40;8.93;;;8.10;;
16640;SDS011;8434;47.990;7.880;2022-07-23T07:13:25;9.13;;;8.18;;
16640;SDS011;8434;47.990;7.880;2022-07-23T07:16:10;8.82;;;7.93;;
16640;SDS011;8434;47.990;7.880;2022-07-23T07:18:55;9.52;;;8.63;;
16640;SDS011;8434;47.990;7.880;2022-07-23T07:21:40;9.40;;;8.60;;
16640;SDS011;8434;47.990;7.880;2022-07-23T07:24:25;8.70;;;7.78;;
16640;SDS011;8434;47.990;7.880;2022-07-23T07:27:11;8.60;;;7.80;;
16640;SDS011;8434;47.990;7.880;2022-07-23T07:29:56;8.80;;;8.10;;
16640;SDS011;8434;47.990;7.880;2022-07-23T07:32:41;8.68;;;7.97;;
16640;SDS011;8434;47.990;7.880;2022-07-23T07:35:26;9.60;;;8.68;;
16640;SDS011;8434;47.990;7.880;2022-07-23T07:38:12;9.23;;;8.32;;
16640;SDS011;8434;47.990;7.880;2022-07-23T07:40:56;9.23;;;8.43;;
16640;SDS011;8434;47.990;7.880;2022-07-23T07:43:43;9.32;;;8.45;;
16640;SDS011;8434;47.990;7.880;2022-07-23T07:46:28;9.20;;;8.40;;
16640;SDS011;8434;47.990;7.880;2022-07-23T07:49:14;8.77;;;8.07;;
16640;SDS011;8434;47.990;7.880;2022-07-23T07:52:00;9.80;;;8.80;;
16640;SDS011;8434;47.990;7.880;2022-07-23T07:54:45;9.02;;;8.23;;
16640;SDS011;8434;47.990;7.880;2022-07-23T07:57:30;8.82;;;8.02;;
16640;SDS011;8434;47.990;7.880;2022-07-23T08:00:17;9.90;;;8.60;;
16640;SDS011;8434;47.990;7.880;2022-07-23T08:03:01;8.95;;;8.15;;
16640;SDS011;8434;47.990;7.880;2022-07-23T08:05:46;8.55;;;7.70;;
16640;SDS011;8434;47.990;7.880;2022-07-23T08:08:31;8.93;;;7.70;;
16640;SDS011;8434;47.990;7.880;2022-07-23T08:11:18;9.23;;;8.23;;
16640;SDS011;8434;47.990;7.880;2022-07-23T08:14:04;8.55;;;7.75;;
16640;SDS011;8434;47.990;7.880;2022-07-23T08:16:50;8.93;;;8.23;;
16640;SDS011;8434;47.990;7.880;2022-07-23T08:19:35;8.90;;;8.07;;
16640;SDS011;8434;47.990;7.880;2022-07-23T08:22:20;8.20;;;7.55;;
16640;SDS011;8434;47.990;7.880;2022-07-23T08:25:05;8.27;;;7.47;;
16640;SDS011;8434;47.990;7.880;2022-07-23T08:27:50;9.82;;;7.43;;
16640;SDS011;8434;47.990;7.880;2022-07-23T08:30:35;8.15;;;7.40;;
16640;SDS011;8434;47.990;7.880;2022-07-23T08:33:21;7.60;;;7.03;;
16640;SDS011;8434;47.990;7.880;2022-07-23T08:36:07;9.68;;;7.47;;
16640;SDS011;8434;47.990;7.880;2022-07-23T08:38:52;8.20;;;7.40;;
16640;SDS011;8434;47.990;7.880;2022-07-23T08:41:38;7.47;;;6.88;;
16640;SDS011;8434;47.990;7.880;2022-07-23T08:44:24;7.18;;;6.57;;
16640;SDS011;8434;47.990;7.880;2022-07-23T08:47:10;8.07;;;7.28;;
16640;SDS011;8434;47.990;7.880;2022-07-23T08:49:57;7.90;;;7.22;;
16640;SDS011;8434;47.990;7.880;2022-07-23T08:52:43;7.47;;;6.80;;
16640;SDS011;8434;47.990;7.880;2022-07-23T08:55:28;8.10;;;7.32;;
16640;SDS011;8434;47.990;7.880;2022-07-23T08:58:13;7.55;;;6.95;;
16640;SDS011;8434;47.990;7.880;2022-07-23T09:01:01;7.50;;;6.90;;
16640;SDS011;8434;47.990;7.880;2022-07-23T09:03:46;7.20;;;6.50;;
16640;SDS011;8434;47.990;7.880;2022-07-23T09:06:33;7.03;;;6.53;;
16640;SDS011;8434;47.990;7.880;2022-07-23T09:09:19;7.32;;;6.63;;
16640;SDS011;8434;47.990;7.880;2022-07-23T09:12:05;7.65;;;6.95;;
16640;SDS011;8434;47.990;7.880;2022-07-23T09:14:50;6.80;;;6.30;;
16640;SDS011;8434;47.990;7.880;2022-07-23T09:17:37;7.65;;;7.05;;
16640;SDS011;8434;47.990;7.880;2022-07-23T09:20:22;7.60;;;6.90;;
16640;SDS011;8434;47.990;7.880;2022-07-23T09:23:08;7.78;;;7.15;;
16640;SDS011;8434;47.990;7.880;2022-07-23T09:25:53;7.70;;;6.72;;
16640;SDS011;8434;47.990;7.880;2022-07-23T09:28:46;7.72;;;7.03;;
16640;SDS011;8434;47.990;7.880;2022-07-23T09:31:34;8.32;;;7.63;;
16640;SDS011;8434;47.990;7.880;2022-07-23T09:34:20;8.30;;;7.57;;
16640;SDS011;8434;47.990;7.880;2022-07-23T09:37:08;8.73;;;7.93;;
16640;SDS011;8434;47.990;7.880;2022-07-23T09:40:02;8.07;;;7.38;;
16640;SDS011;8434;47.990;7.880;2022-07-23T09:42:54;7.35;;;6.75;;
16640;SDS011;8434;47.990;7.880;2022-07-23T09:45:40;7.82;;;7.13;;
16640;SDS011;8434;47.990;7.880;2022-07-23T09:48:25;8.27;;;7.50;;
16640;SDS011;8434;47.990;7.880;2022-07-23T09:51:10;7.80;;;7.20;;
16640;SDS011;8434;47.990;7.880;2022-07-23T09:53:55;9.90;;;7.50;;
16640;SDS011;8434;47.990;7.880;2022-07-23T09:56:41;7.57;;;6.88;;
16640;SDS011;8434;47.990;7.880;2022-07-23T09:59:29;8.63;;;7.93;;
16640;SDS011;8434;47.990;7.880;2022-07-23T10:02:14;8.23;;;7.38;;
16640;SDS011;8434;47.990;7.880;2022-07-23T10:04:59;7.93;;;7.22;;
16640;SDS011;8434;47.990;7.880;2022-07-23T10:07:45;8.35;;;7.63;;
16640;SDS011;8434;47.990;7.880;2022-07-23T10:10:30;8.13;;;7.32;;
16640;SDS011;8434;47.990;7.880;2022-07-23T10:13:17;8.32;;;7.55;;
16640;SDS011;8434;47.990;7.880;2022-07-23T10:16:22;8.40;;;7.60;;
16640;SDS011;8434;47.990;7.880;2022-07-23T10:19:07;7.70;;;7.00;;
16640;SDS011;8434;47.990;7.880;2022-07-23T10:21:55;8.63;;;7.72;;
16640;SDS011;8434;47.990;7.880;2022-07-23T10:24:47;8.05;;;7.35;;
16640;SDS011;8434;47.990;7.880;2022-07-23T10:27:37;8.98;;;8.13;;
16640;SDS011;8434;47.990;7.880;2022-07-23T10:30:30;7.82;;;7.13;;
16640;SDS011;8434;47.990;7.880;2022-07-23T10:33:18;8.23;;;7.53;;
16640;SDS011;8434;47.990;7.880;2022-07-23T10:36:09;8.02;;;7.32;;
16640;SDS011;8434;47.990;7.880;2022-07-23T10:38:58;9.55;;;7.55;;
16640;SDS011;8434;47.990;7.880;2022-07-23T10:41:44;8.00;;;7.38;;
16640;SDS011;8434;47.990;7.880;2022-07-23T10:44:32;8.20;;;7.50;;
16640;SDS011;8434;47.990;7.880;2022-07-23T10:47:25;7.80;;;7.05;;
16640;SDS011;8434;47.990;7.880;2022-07-23T10:50:25;8.10;;;7.40;;
16640;SDS011;8434;47.990;7.880;2022-07-23T10:53:14;8.52;;;7.70;;
16640;SDS011;8434;47.990;7.880;2022-07-23T10:56:00;8.48;;;7.68;;
16640;SDS011;8434;47.990;7.880;2022-07-23T10:58:46;8.00;;;7.30;;
16640;SDS011;8434;47.990;7.880;2022-07-23T11:01:32;8.40;;;7.60;;
16640;SDS011;8434;47.990;7.880;2022-07-23T11:04:18;7.50;;;6.80;;
16640;SDS011;8434;47.990;7.880;2022-07-23T11:07:07;9.20;;;8.07;;
16640;SDS011;8434;47.990;7.880;2022-07-23T11:09:55;8.07;;;7.43;;
16640;SDS011;8434;47.990;7.880;2022-07-23T11:12:40;7.93;;;7.22;;
16640;SDS011;8434;47.990;7.880;2022-07-23T11:15:25;8.82;;;8.02;;
16640;SDS011;8434;47.990;7.880;2022-07-23T11:18:09;8.73;;;8.00;;
16640;SDS011;8434;47.990;7.880;2022-07-23T11:20:56;8.73;;;7.93;;
16640;SDS011;8434;47.990;7.880;2022-07-23T11:26:42;8.57;;;7.95;;
16640;SDS011;8434;47.990;7.880;2022-07-23T11:29:37;9.80;;;9.00;;
16640;SDS011;8434;47.990;7.880;2022-07-23T11:32:39;9.40;;;8.60;;
16640;SDS011;8434;47.990;7.880;2022-07-23T11:35:25;9.20;;;8.25;;
16640;SDS011;8434;47.990;7.880;2022-07-23T11:38:13;9.40;;;8.60;;
16640;SDS011;8434;47.990;7.880;2022-07-23T11:40:58;10.07;;;9.10;;
16640;SDS011;8434;47.990;7.880;2022-07-23T11:43:43;10.05;;;8.88;;
16640;SDS011;8434;47.990;7.880;2022-07-23T11:46:28;8.70;;;8.00;;
16640;SDS011;8434;47.990;7.880;2022-07-23T11:49:13;9.13;;;8.38;;
16640;SDS011;8434;47.990;7.880;2022-07-23T11:52:04;9.52;;;8.73;;
16640;SDS011;8434;47.990;7.880;2022-07-23T11:54:52;8.45;;;7.85;;
16640;SDS011;8434;47.990;7.880;2022-07-23T11:57:38;9.55;;;8.75;;
16640;SDS011;8434;47.990;7.880;2022-07-23T12:00:24;9.55;;;8.60;;
16640;SDS011;8434;47.990;7.880;2022-07-23T12:03:09;9.43;;;8.52;;
16640;SDS011;8434;47.990;7.880;2022-07-23T12:05:56;8.90;;;8.20;;
16640;SDS011;8434;47.990;7.880;2022-07-23T12:08:41;9.00;;;8.10;;
16640;SDS011;8434;47.990;7.880;2022-07-23T12:11:28;8.55;;;7.82;;
16640;SDS011;8434;47.990;7.880;2022-07-23T12:14:13;9.32;;;8.55;;
16640;SDS011;8434;47.990;7.880;2022-07-23T12:17:07;8.88;;;8.18;;
16640;SDS011;8434;47.990;7.880;2022-07-23T12:19:52;9.38;;;8.55;;
16640;SDS011;8434;47.990;7.880;2022-07-23T12:22:38;10.07;;;9.27;;
16640;SDS011;8434;47.990;7.880;2022-07-23T12:25:24;8.90;;;8.10;;
16640;SDS011;8434;47.990;7.880;2022-07-23T12:28:11;9.20;;;8.50;;
16640;SDS011;8434;47.990;7.880;2022-07-23T12:30:57;9.00;;;8.30;;
16640;SDS011;8434;47.990;7.880;2022-07-23T12:33:43;8.90;;;8.10;;
16640;SDS011;8434;47.990;7.880;2022-07-23T12:36:36;8.93;;;8.13;;
16640;SDS011;8434;47.990;7.880;2022-07-23T12:39:29;9.27;;;8.48;;
16640;SDS011;8434;47.990;7.880;2022-07-23T12:42:14;8.48;;;7.78;;
16640;SDS011;8434;47.990;7.880;2022-07-23T12:45:05;9.10;;;8.23;;
16640;SDS011;8434;47.990;7.880;2022-07-23T12:48:01;8.95;;;8.13;;
16640;SDS011;8434;47.990;7.880;2022-07-23T12:50:49;8.60;;;7.80;;
16640;SDS011;8434;47.990;7.880;2022-07-23T12:53:37;9.32;;;8.45;;
16640;SDS011;8434;47.990;7.880;2022-07-23T12:56:26;9.00;;;8.15;;
16640;SDS011;8434;47.990;7.880;2022-07-23T12:59:15;8.15;;;7.55;;
16640;SDS011;8434;47.990;7.880;2022-07-23T13:02:02;8.55;;;7.80;;
16640;SDS011;8434;47.990;7.880;2022-07-23T13:04:47;8.23;;;7.53;;
16640;SDS011;8434;47.990;7.880;2022-07-23T13:07:32;8.27;;;7.63;;
16640;SDS011;8434;47.990;7.880;2022-07-23T13:10:17;7.72;;;7.13;;
16640;SDS011;8434;47.990;7.880;2022-07-23T13:13:02;8.95;;;8.13;;
16640;SDS011;8434;47.990;7.880;2022-07-23T13:15:53;8.43;;;7.63;;
16640;SDS011;8434;47.990;7.880;2022-07-23T13:18:39;8.68;;;7.95;;
16640;SDS011;8434;47.990;7.880;2022-07-23T13:21:24;9.38;;;8.65;;
16640;SDS011;8434;47.990;7.880;2022-07-23T13:24:09;8.57;;;7.78;;
16640;SDS011;8434;47.990;7.880;2022-07-23T13:26:55;10.02;;;8.68;;
16640;SDS011;8434;47.990;7.880;2022-07-23T13:29:43;8.75;;;8.00;;
16640;SDS011;8434;47.990;7.880;2022-07-23T13:32:28;8.80;;;8.07;;
16640;SDS011;8434;47.990;7.880;2022-07-23T13:35:14;9.15;;;8.30;;
16640;SDS011;8434;47.990;7.880;2022-07-23T13:37:59;8.93;;;8.15;;
16640;SDS011;8434;47.990;7.880;2022-07-23T13:40:46;8.48;;;7.70;;
16640;SDS011;8434;47.990;7.880;2022-07-23T13:43:31;8.27;;;7.57;;
16640;SDS011;8434;47.990;7.880;2022-07-23T13:46:16;8.63;;;7.82;;
16640;SDS011;8434;47.990;7.880;2022-07-23T13:49:01;7.90;;;7.30;;
16640;SDS011;8434;47.990;7.880;2022-07-23T13:51:48;9.02;;;8.25;;
16640;SDS011;8434;47.990;7.880;2022-07-23T13:54:33;7.97;;;7.18;;
16640;SDS011;8434;47.990;7.880;2022-07-23T13:57:18;8.80;;;8.10;;
16640;SDS011;8434;47.990;7.880;2022-07-23T14:00:03;9.00;;;8.30;;
16640;SDS011;8434;47.990;7.880;2022-07-23T14:02:49;7.90;;;7.28;;
16640;SDS011;8434;47.990;7.880;2022-07-23T14:05:34;8.38;;;7.57;;
16640;SDS011;8434;47.990;7.880;2022-07-23T14:08:21;7.85;;;7.25;;
16640;SDS011;8434;47.990;7.880;2022-07-23T14:11:06;7.95;;;7.25;;
16640;SDS011;8434;47.990;7.880;2022-07-23T14:13:51;7.60;;;7.00;;
16640;SDS011;8434;47.990;7.880;2022-07-23T14:16:36;8.43;;;7.72;;
16640;SDS011;8434;47.990;7.880;2022-07-23T14:19:21;8.77;;;7.93;;
16640;SDS011;8434;47.990;7.880;2022-07-23T14:22:06;8.82;;;8.10;;
16640;SDS011;8434;47.990;7.880;2022-07-23T14:24:52;9.00;;;8.10;;
16640;SDS011;8434;47.990;7.880;2022-07-23T14:27:37;8.75;;;8.05;;
16640;SDS011;8434;47.990;7.880;2022-07-23T14:30:22;8.63;;;7.93;;
16640;SDS011;8434;47.990;7.880;2022-07-23T14:33:07;7.60;;;7.10;;
16640;SDS011;8434;47.990;7.880;2022-07-23T14:35:52;8.77;;;7.97;;
16640;SDS011;8434;47.990;7.880;2022-07-23T14:38:37;8.18;;;7.50;;
16640;SDS011;8434;47.990;7.880;2022-07-23T14:41:23;9.30;;;8.50;;
16640;SDS011;8434;47.990;7.880;2022-07-23T14:44:08;8.90;;;8.20;;
16640;SDS011;8434;47.990;7.880;2022-07-23T14:46:54;9.52;;;8.68;;
16640;SDS011;8434;47.990;7.880;2022-07-23T14:49:39;8.73;;;7.93;;
16640;SDS011;8434;47.990;7.880;2022-07-23T14:52:23;8.57;;;7.78;;
16640;SDS011;8434;47.990;7.880;2022-07-23T14:55:08;9.27;;;8.57;;
16640;SDS011;8434;47.990;7.880;2022-07-23T14:57:55;8.82;;;7.97;;
16640;SDS011;8434;47.990;7.880;2022-07-23T15:00:40;8.48;;;7.88;;
16640;SDS011;8434;47.990;7.880;2022-07-23T15:03:25;7.85;;;7.15;;
16640;SDS011;8434;47.990;7.880;2022-07-23T15:06:10;8.40;;;7.70;;
16640;SDS011;8434;47.990;7.880;2022-07-23T15:08:54;8.25;;;7.55;;
16640;SDS011;8434;47.990;7.880;2022-07-23T15:11:39;9.35;;;8.45;;
16640;SDS011;8434;47.990;7.880;2022-07-23T15:14:26;8.85;;;7.95;;
16640;SDS011;8434;47.990;7.880;2022-07-23T15:17:11;8.40;;;7.70;;
16640;SDS011;8434;47.990;7.880;2022-07-23T15:19:56;8.70;;;8.00;;
16640;SDS011;8434;47.990;7.880;2022-07-23T15:22:41;7.80;;;7.10;;
16640;SDS011;8434;47.990;7.880;2022-07-23T15:25:26;11.35;;;8.20;;
16640;SDS011;8434;47.990;7.880;2022-07-23T15:28:11;9.02;;;8.23;;
16640;SDS011;8434;47.990;7.880;2022-07-23T15:30:58;8.35;;;7.65;;
16640;SDS011;8434;47.990;7.880;2022-07-23T15:33:43;8.15;;;7.45;;
16640;SDS011;8434;47.990;7.880;2022-07-23T15:36:28;9.13;;;8.25;;
16640;SDS011;8434;47.990;7.880;2022-07-23T15:39:13;8.60;;;7.80;;
16640;SDS011;8434;47.990;7.880;2022-07-23T15:41:58;9.00;;;8.13;;
16640;SDS011;8434;47.990;7.880;2022-07-23T15:44:43;8.48;;;7.78;;
16640;SDS011;8434;47.990;7.880;2022-07-23T15:47:29;8.68;;;7.90;;
16640;SDS011;8434;47.990;7.880;2022-07-23T15:50:14;8.90;;;8.20;;
16640;SDS011;8434;47.990;7.880;2022-07-23T15:53:00;9.10;;;8.25;;
16640;SDS011;8434;47.990;7.880;2022-07-23T15:55:45;8.70;;;8.00;;
16640;SDS011;8434;47.990;7.880;2022-07-23T15:58:30;9.55;;;8.60;;
16640;SDS011;8434;47.990;7.880;2022-07-23T16:01:15;9.35;;;8.07;;
16640;SDS011;8434;47.990;7.880;2022-07-23T16:04:02;9.05;;;8.25;;
16640;SDS011;8434;47.990;7.880;2022-07-23T16:06:47;9.45;;;8.35;;
16640;SDS011;8434;47.990;7.880;2022-07-23T16:09:32;9.00;;;8.20;;
16640;SDS011;8434;47.990;7.880;2022-07-23T16:12:18;9.38;;;8.40;;
16640;SDS011;8434;47.990;7.880;2022-07-23T16:15:03;9.60;;;7.63;;
16640;SDS011;8434;47.990;7.880;2022-07-23T16:17:48;8.90;;;8.20;;
16640;SDS011;8434;47.990;7.880;2022-07-23T16:20:35;8.13;;;7.47;;
16640;SDS011;8434;47.990;7.880;2022-07-23T16:23:20;8.30;;;7.50;;
16640;SDS011;8434;47.990;7.880;2022-07-23T16:26:05;8.18;;;7.47;;
16640;SDS011;8434;47.990;7.880;2022-07-23T16:28:50;8.45;;;7.65;;
16640;SDS011;8434;47.990;7.880;2022-07-23T16:31:35;8.98;;;8.23;;
16640;SDS011;8434;47.990;7.880;2022-07-23T16:34:20;8.38;;;7.55;;
16640;SDS011;8434;47.990;7.880;2022-07-23T16:37:08;7.78;;;7.00;;
16640;SDS011;8434;47.990;7.880;2022-07-23T16:39:54;9.13;;;8.23;;
16640;SDS011;8434;47.990;7.880;2022-07-23T16:42:39;7.75;;;7.07;;
16640;SDS011;8434;47.990;7.880;2022-07-23T16:45:24;7.55;;;6.88;;
16640;SDS011;8434;47.990;7.880;2022-07-23T16:48:09;8.27;;;7.47;;
16640;SDS011;8434;47.990;7.880;2022-07-23T16:50:54;8.30;;;7.45;;